Time;durP1;ratioP1;P1;durP2;ratioP2;P2;SDS_P1;SDS_P2;PMS_P1;PMS_P2;Temp;Humidity;BMP_temperature;BMP_pressure;BME280_temperature;BME280_humidity;BME280_pressure;Samples;Min_cycle;Max_cycle;Signal;HPM_P1;HPM_P2
2021/10/08 05:49:22;;;;;;;23.20;15.58;;;;;;;0.89;100.00;101419.84;1777216;78;21000;-61
2021/10/08 05:51:51;;;;;;;31.50;15.93;;;;;;;1.09;100.00;101423.23;1733597;81;20958;-60
2021/10/08 05:54:18;;;;;;;21.30;12.82;;;;;;;1.23;100.00;101426.72;1771096;79;20906;-61
2021/10/08 05:56:44;;;;;;;18.17;13.15;;;;;;;1.43;100.00;101430.92;1786202;80;20960;-61
2021/10/08 05:59:11;;;;;;;18.75;12.28;;;;;;;1.66;100.00;101430.50;1786283;79;20990;-62
2021/10/08 06:01:38;;;;;;;18.87;13.93;;;;;;;2.14;100.00;101440.73;1812822;78;21874;-61
2021/10/08 06:04:06;;;;;;;33.65;14.47;;;;;;;2.69;100.00;101428.22;1810258;78;21286;-60
2021/10/08 06:06:33;;;;;;;22.67;12.63;;;;;;;3.19;100.00;101432.30;1787125;79;20937;-60
2021/10/08 06:09:01;;;;;;;26.97;14.63;;;;;;;3.65;100.00;101431.97;1796421;79;20922;-61
2021/10/08 06:11:30;;;;;;;21.27;12.70;;;;;;;4.05;100.00;101433.03;1794463;79;20962;-60
2021/10/08 06:13:57;;;;;;;23.35;14.03;;;;;;;4.10;100.00;101440.00;1812411;79;21111;-60
2021/10/08 06:16:25;;;;;;;29.20;17.40;;;;;;;3.83;100.00;101430.51;1794895;79;20926;-61
2021/10/08 06:18:51;;;;;;;29.57;16.75;;;;;;;3.63;100.00;101430.80;1797916;79;20902;-61
2021/10/08 06:21:18;;;;;;;27.62;14.80;;;;;;;3.38;100.00;101437.00;1796581;77;20985;-61
2021/10/08 06:23:45;;;;;;;23.90;15.67;;;;;;;3.17;100.00;101442.24;1805379;79;21429;-61
2021/10/08 06:26:12;;;;;;;22.85;15.23;;;;;;;3.02;100.00;101443.84;1790142;79;21060;-61
2021/10/08 06:28:39;;;;;;;25.52;14.90;;;;;;;2.91;100.00;101437.46;1794803;79;20879;-60
2021/10/08 06:31:06;;;;;;;30.50;18.70;;;;;;;2.86;100.00;101433.95;1814455;79;20866;-61
2021/10/08 06:33:35;;;;;;;24.65;15.65;;;;;;;2.97;100.00;101440.33;1806786;79;21016;-61
2021/10/08 06:36:04;;;;;;;19.73;13.43;;;;;;;3.27;100.00;101432.01;1787197;79;21467;-61
2021/10/08 06:38:33;;;;;;;27.95;17.10;;;;;;;3.80;100.00;101433.00;1782958;79;21880;-61
2021/10/08 06:41:00;;;;;;;36.48;17.10;;;;;;;4.50;100.00;101446.30;1806766;78;20891;-63
2021/10/08 06:43:26;;;;;;;26.62;17.80;;;;;;;5.15;100.00;101441.36;1790818;79;20945;-61
2021/10/08 06:45:57;;;;;;;44.55;21.95;;;;;;;5.67;100.00;101445.28;1801422;79;20981;-60
2021/10/08 06:48:26;;;;;;;41.25;22.07;;;;;;;6.04;100.00;101449.91;1810785;77;21080;-60
2021/10/08 06:50:53;;;;;;;42.35;22.20;;;;;;;6.48;100.00;101447.07;1819646;77;21095;-60
2021/10/08 06:53:20;;;;;;;45.17;23.20;;;;;;;6.80;100.00;101452.08;1818371;77;21399;-60
2021/10/08 06:55:48;;;;;;;;;;;;;;;7.17;100.00;101446.86;1820144;77;20946;-60
2021/10/08 06:58:16;;;;;;;19.95;13.30;;;;;;;7.50;100.00;101452.12;1824484;78;28123;-60
2021/10/08 07:00:44;;;;;;;20.05;11.95;;;;;;;7.78;98.66;101448.73;1777474;79;21030;-60
2021/10/08 07:03:11;;;;;;;17.90;10.85;;;;;;;7.60;99.66;101445.66;1762536;81;21339;-60
2021/10/08 07:05:39;;;;;;;22.17;12.23;;;;;;;7.67;99.40;101444.72;1747018;81;20878;-60
2021/10/08 07:08:07;;;;;;;20.23;12.15;;;;;;;7.95;98.59;101450.66;1748946;81;20962;-61
2021/10/08 07:10:34;;;;;;;18.17;10.73;;;;;;;8.03;93.87;101458.55;1740453;81;21452;-61
2021/10/08 07:13:01;;;;;;;14.03;10.15;;;;;;;8.12;90.58;101456.59;1749545;81;20970;-60
2021/10/08 07:15:29;;;;;;;18.57;10.78;;;;;;;8.07;89.01;101457.16;1758123;81;21113;-62
2021/10/08 07:17:56;;;;;;;17.92;10.82;;;;;;;8.31;87.22;101459.15;1780526;79;21358;-62
2021/10/08 07:20:27;;;;;;;26.30;13.35;;;;;;;8.72;84.25;101463.33;1758336;81;20919;-61
2021/10/08 07:23:19;;;;;;;17.95;9.13;;;;;;;8.98;82.21;101460.50;1753014;81;21034;-62
2021/10/08 07:25:46;;;;;;;13.68;8.50;;;;;;;9.15;77.72;101456.48;1630591;86;20858;-61
2021/10/08 07:28:13;;;;;;;15.65;11.20;;;;;;;8.94;79.07;101465.44;1632494;86;21153;-61
2021/10/08 07:30:40;;;;;;;16.20;9.68;;;;;;;9.10;79.36;101466.14;1651817;86;20945;-61
2021/10/08 07:33:06;;;;;;;16.20;7.95;;;;;;;9.29;76.97;101467.28;1652407;86;20973;-62
2021/10/08 07:35:33;;;;;;;15.58;8.80;;;;;;;9.45;75.10;101467.75;1653619;86;21100;-61
2021/10/08 07:38:00;;;;;;;14.83;10.10;;;;;;;9.55;72.50;101462.55;1654306;86;21080;-61
2021/10/08 07:40:26;;;;;;;14.63;8.83;;;;;;;9.50;73.24;101466.34;1655691;86;21156;-60
2021/10/08 07:42:53;;;;;;;17.77;8.90;;;;;;;9.63;70.37;101460.53;1684224;83;21060;-61
2021/10/08 07:45:19;;;;;;;36.28;12.00;;;;;;;9.92;69.53;101460.39;1672184;83;21069;-60
2021/10/08 07:47:46;;;;;;;24.47;10.05;;;;;;;10.25;66.88;101453.75;1668955;83;21432;-60
2021/10/08 07:50:14;;;;;;;12.43;7.30;;;;;;;10.27;64.56;101459.22;1686544;83;20986;-61
2021/10/08 07:52:43;;;;;;;9.53;7.45;;;;;;;10.31;63.06;101463.68;1687464;83;22271;-63
2021/10/08 07:55:10;;;;;;;15.93;9.60;;;;;;;10.36;63.03;101451.81;1678583;83;20876;-62
2021/10/08 07:57:38;;;;;;;12.70;8.28;;;;;;;10.45;62.71;101465.34;1686912;83;20998;-61
2021/10/08 08:00:08;;;;;;;12.33;8.08;;;;;;;10.69;62.87;101464.42;1693650;83;21054;-62
2021/10/08 08:02:41;;;;;;;13.78;8.85;;;;;;;10.88;60.45;101466.27;1726373;79;21038;-60
2021/10/08 08:05:09;;;;;;;16.60;8.53;;;;;;;11.14;59.81;101472.61;1779308;79;21182;-61
2021/10/08 08:07:35;;;;;;;18.52;9.78;;;;;;;11.13;57.59;101450.29;1776636;79;20899;-61
2021/10/08 08:10:06;;;;;;;10.78;7.37;;;;;;;11.19;57.29;101462.05;1778231;79;20883;-61
2021/10/08 08:12:32;;;;;;;27.98;14.07;;;;;;;11.34;58.56;101466.67;1790331;79;20918;-62
2021/10/08 08:14:59;;;;;;;19.32;10.85;;;;;;;11.44;56.80;101459.50;1789071;79;20899;-60
2021/10/08 08:17:25;;;;;;;8.48;6.28;;;;;;;11.50;56.16;101464.55;1771655;80;21107;-61
2021/10/08 08:19:52;;;;;;;18.27;10.10;;;;;;;11.21;54.20;101449.75;1776436;80;20965;-61
2021/10/08 08:22:18;;;;;;;13.28;9.38;;;;;;;11.09;55.34;101464.36;1755730;80;20884;-62
2021/10/08 08:24:45;;;;;;;23.70;12.50;;;;;;;11.28;54.53;101449.22;1760873;80;21036;-60
2021/10/08 08:27:12;;;;;;;14.93;8.53;;;;;;;11.26;55.17;101458.83;1749186;80;20930;-59
2021/10/08 08:29:38;;;;;;;20.55;11.00;;;;;;;11.26;54.44;101453.45;1755947;80;21783;-60
2021/10/08 08:32:05;;;;;;;27.00;13.32;;;;;;;11.19;53.55;101458.02;1788340;79;21432;-60
2021/10/08 08:34:32;;;;;;;13.62;8.18;;;;;;;11.24;53.51;101454.17;1762101;80;21397;-60
2021/10/08 08:37:00;;;;;;;19.20;9.98;;;;;;;11.30;54.07;101451.18;1769355;80;20950;-60
2021/10/08 08:39:26;;;;;;;24.52;10.55;;;;;;;11.45;53.08;101458.45;1763048;80;21025;-61
2021/10/08 08:41:53;;;;;;;16.85;8.33;;;;;;;11.57;51.16;101439.80;1777547;80;21082;-60
2021/10/08 08:44:23;;;;;;;15.23;8.40;;;;;;;11.82;51.32;101447.94;1781408;78;20966;-60
2021/10/08 08:46:49;;;;;;;16.42;10.15;;;;;;;11.84;51.76;101455.80;1778816;79;20899;-63
2021/10/08 08:49:17;;;;;;;48.13;27.90;;;;;;;11.83;51.67;101448.23;1761214;80;21463;-61
2021/10/08 08:51:44;;;;;;;8.45;5.70;;;;;;;11.91;50.91;101441.30;1831011;76;20894;-62
2021/10/08 08:54:11;;;;;;;15.95;8.40;;;;;;;11.87;50.92;101452.17;1822580;78;21776;-62
2021/10/08 08:56:38;;;;;;;16.42;9.88;;;;;;;11.93;49.88;101443.25;1857246;76;21311;-61
2021/10/08 08:59:12;;;;;;;10.60;6.45;;;;;;;12.33;49.53;101448.88;1826389;77;21077;-61
2021/10/08 09:02:04;;;;;;;16.80;10.23;;;;;;;12.48;48.36;101443.98;1833955;77;20920;-61
2021/10/08 09:04:32;;;;;;;11.97;6.60;;;;;;;12.30;45.59;101437.18;1817900;78;21439;-62
2021/10/08 09:06:59;;;;;;;7.92;5.25;;;;;;;12.55;46.25;101445.28;1848254;77;22210;-63
2021/10/08 09:09:27;;;;;;;11.25;6.47;;;;;;;12.36;45.73;101444.39;1829589;76;20940;-61
2021/10/08 09:11:55;;;;;;;13.32;6.65;;;;;;;12.38;46.50;101446.36;1833068;77;21004;-62
2021/10/08 09:14:29;;;;;;;14.30;8.00;;;;;;;12.70;45.46;101435.52;1771465;80;21569;-61
2021/10/08 09:17:17;;;;;;;14.78;5.75;;;;;;;12.78;45.41;101433.87;1836704;77;21427;-61
2021/10/08 09:19:55;;;;;;;8.90;4.93;;;;;;;12.74;44.00;101425.42;1764230;80;21474;-60
2021/10/08 09:22:45;;;;;;;6.00;4.70;;;;;;;12.47;44.60;101429.38;1794924;78;21037;-63
2021/10/08 09:25:26;;;;;;;9.70;5.85;;;;;;;12.46;44.36;101419.14;1793661;78;21028;-63
2021/10/08 09:27:55;;;;;;;10.43;6.33;;;;;;;12.47;44.08;101426.69;1824804;77;20952;-61
2021/10/08 09:30:26;;;;;;;17.00;9.33;;;;;;;12.68;43.79;101426.30;1837419;77;21419;-61
2021/10/08 09:32:55;;;;;;;5.50;4.55;;;;;;;12.67;44.27;101423.31;1837046;77;21107;-63
2021/10/08 09:35:24;;;;;;;8.85;5.20;;;;;;;12.62;43.81;101413.20;1826012;77;21004;-62
2021/10/08 09:38:01;;;;;;;11.90;7.17;;;;;;;12.71;43.20;101401.59;1836037;77;21011;-61
2021/10/08 09:40:44;;;;;;;18.30;7.62;;;;;;;12.83;42.97;101404.38;1833977;77;21063;-62
2021/10/08 09:43:13;;;;;;;18.87;9.23;;;;;;;13.14;41.82;101403.95;1834187;77;21428;-62
2021/10/08 09:45:50;;;;;;;11.30;5.37;;;;;;;13.21;41.25;101408.74;1824688;77;21682;-62
2021/10/08 09:48:16;;;;;;;8.88;4.42;;;;;;;12.98;41.29;101398.09;1808109;78;20978;-61
2021/10/08 09:51:05;;;;;;;25.37;7.62;;;;;;;12.97;41.20;101399.69;1801720;77;20897;-61
2021/10/08 09:53:36;;;;;;;23.95;8.00;;;;;;;13.09;41.53;101412.18;1756802;80;21004;-61
2021/10/08 09:56:30;;;;;;;20.10;12.80;;;;;;;13.39;40.66;101385.81;1752862;81;21077;-61
2021/10/08 09:58:56;;;;;;;11.30;6.40;;;;;;;13.79;41.41;101402.82;1745814;80;21114;-61
2021/10/08 10:01:28;;;;;;;15.00;4.78;;;;;;;14.00;39.56;101398.75;1747083;81;20881;-60
2021/10/08 10:03:55;;;;;;;9.53;4.70;;;;;;;13.63;39.83;101407.50;1733370;81;21028;-61
2021/10/08 10:06:23;;;;;;;11.57;7.28;;;;;;;13.20;39.58;101394.94;1747593;81;21374;-61
2021/10/08 10:08:50;;;;;;;10.80;5.53;;;;;;;13.01;40.56;101393.63;1745883;81;21031;-62
2021/10/08 10:11:19;;;;;;;13.40;4.87;;;;;;;13.11;39.73;101393.09;1740341;81;21125;-61
2021/10/08 10:13:47;;;;;;;14.70;5.70;;;;;;;13.12;39.61;101404.16;1735862;81;21445;-61
2021/10/08 10:16:16;;;;;;;6.55;4.10;;;;;;;13.22;39.76;101383.41;1763345;81;21454;-62
2021/10/08 10:18:51;;;;;;;8.10;5.10;;;;;;;13.55;39.10;101389.77;1766262;80;20961;-62
2021/10/08 10:21:23;;;;;;;12.18;5.05;;;;;;;13.57;39.48;101384.12;1725892;81;21042;-63
2021/10/08 10:23:57;;;;;;;16.70;4.83;;;;;;;13.71;39.55;101392.33;1748814;80;21709;-63
2021/10/08 10:26:26;;;;;;;11.08;5.42;;;;;;;13.54;39.21;101375.96;1756495;81;20944;-61
2021/10/08 10:28:53;;;;;;;7.87;4.62;;;;;;;13.28;38.82;101382.55;1739130;81;21430;-63
2021/10/08 10:31:20;;;;;;;11.38;5.55;;;;;;;13.35;39.26;101373.00;1736216;81;20956;-63
2021/10/08 10:33:48;;;;;;;10.72;4.97;;;;;;;13.73;39.56;101376.73;1736161;82;20908;-61
2021/10/08 10:36:28;;;;;;;8.23;4.35;;;;;;;13.48;39.06;101379.59;1747454;81;21068;-61
2021/10/08 10:39:17;;;;;;;10.20;4.62;;;;;;;13.50;38.53;101362.13;1748389;81;20999;-62
2021/10/08 10:41:46;;;;;;;12.00;6.05;;;;;;;13.62;38.76;101370.77;1752133;81;20944;-61
2021/10/08 10:44:41;;;;;;;14.93;8.23;;;;;;;13.79;38.20;101370.44;1752009;81;20988;-61
2021/10/08 10:47:30;;;;;;;22.75;15.95;;;;;;;13.87;37.60;101365.23;1725757;81;21430;-63
2021/10/08 10:50:39;;;;;;;14.90;9.73;;;;;;;13.97;38.29;101358.73;1757607;80;21150;-63
2021/10/08 10:53:00;;;;;;;68.45;42.80;;;;;;;14.14;38.38;101365.63;1774362;80;20965;-63
2021/10/08 10:55:33;;;;;;;37.88;23.70;;;;;;;14.04;37.56;101367.55;1773026;80;20926;-60
2021/10/08 10:58:06;;;;;;;26.27;14.68;;;;;;;13.74;36.98;101352.73;1773039;80;21009;-64
2021/10/08 11:00:41;;;;;;;58.73;27.50;;;;;;;13.54;37.65;101363.00;1733966;82;21411;-62
2021/10/08 11:03:15;;;;;;;52.10;24.43;;;;;;;13.60;37.69;101360.22;1766934;79;21136;-61
2021/10/08 11:06:10;;;;;;;90.42;45.48;;;;;;;13.47;37.42;101353.64;1773743;80;21036;-63
2021/10/08 11:08:59;;;;;;;40.55;22.58;;;;;;;13.69;37.16;101366.95;1761324;80;20993;-63
2021/10/08 11:11:26;;;;;;;26.25;15.98;;;;;;;13.69;36.75;101359.35;1767548;80;21048;-63
2021/10/08 11:13:53;;;;;;;31.40;16.82;;;;;;;13.69;36.68;101361.55;1765377;80;21490;-62
2021/10/08 11:16:29;;;;;;;29.63;14.25;;;;;;;13.57;37.91;101357.14;1737461;80;21132;-63
2021/10/08 11:18:56;;;;;;;37.63;18.15;;;;;;;13.85;37.42;101356.53;1759217;80;20965;-61
2021/10/08 11:21:39;;;;;;;12.65;8.80;;;;;;;13.71;37.72;101361.30;1771464;80;21440;-62
2021/10/08 11:24:21;;;;;;;21.97;10.95;;;;;;;13.90;37.46;101352.08;1767588;80;21451;-63
2021/10/08 11:27:01;;;;;;;26.55;11.73;;;;;;;13.67;37.34;101357.41;1709890;83;21506;-63
2021/10/08 11:29:34;;;;;;;13.22;7.03;;;;;;;13.31;37.88;101357.00;1784991;80;21093;-63
2021/10/08 11:32:10;;;;;;;18.70;9.48;;;;;;;13.58;37.33;101357.45;1783126;80;21012;-64
2021/10/08 11:34:50;;;;;;;162.88;89.55;;;;;;;13.64;37.17;101351.94;1760934;80;21341;-63
2021/10/08 11:37:19;;;;;;;102.20;44.73;;;;;;;13.44;36.98;101354.93;1761042;80;21393;-62
2021/10/08 11:39:47;;;;;;;194.67;80.90;;;;;;;13.30;37.46;101350.76;1759349;80;21404;-63
2021/10/08 11:42:17;;;;;;;435.95;187.15;;;;;;;13.11;37.74;101344.56;1769879;80;21104;-62
2021/10/08 11:45:06;;;;;;;503.65;258.52;;;;;;;12.96;37.59;101361.63;1769253;80;21370;-62
2021/10/08 11:47:42;;;;;;;232.95;102.12;;;;;;;12.71;38.16;101361.18;1782966;80;20982;-63
2021/10/08 11:50:27;;;;;;;189.10;93.87;;;;;;;12.42;39.13;101358.67;1779929;80;21027;-62
2021/10/08 11:52:47;;;;;;;91.78;45.50;;;;;;;12.06;40.18;101357.56;1718126;83;21115;-62
2021/10/08 11:55:17;;;;;;;77.67;37.78;;;;;;;12.28;39.90;101350.45;1777393;80;21735;-62
2021/10/08 11:58:00;;;;;;;100.47;49.05;;;;;;;12.80;39.48;101349.06;1770074;80;20930;-60
2021/10/08 12:00:39;;;;;;;108.65;46.15;;;;;;;13.17;39.08;101348.22;1772820;79;21072;-61
2021/10/08 12:03:11;;;;;;;48.13;21.57;;;;;;;13.28;38.50;101356.41;1770816;80;20978;-61
2021/10/08 12:06:05;;;;;;;26.77;10.88;;;;;;;13.15;38.37;101362.45;1774306;80;21027;-62
2021/10/08 12:08:35;;;;;;;125.85;52.30;;;;;;;12.65;38.12;101344.58;1771611;80;21319;-61
2021/10/08 12:11:13;;;;;;;264.08;116.00;;;;;;;12.49;38.85;101340.58;1771054;80;21000;-62
2021/10/08 12:13:57;;;;;;;104.83;43.80;;;;;;;12.43;38.50;101349.04;1768828;80;21037;-61
2021/10/08 12:16:41;;;;;;;168.00;77.10;;;;;;;12.60;38.05;101349.81;1783139;80;21449;-60
2021/10/08 12:19:09;;;;;;;36.17;15.23;;;;;;;12.68;38.19;101352.73;1787769;80;21012;-63
2021/10/08 12:21:39;;;;;;;112.10;49.63;;;;;;;12.63;38.02;101344.79;1759872;80;21102;-61
2021/10/08 12:24:16;;;;;;;44.85;17.05;;;;;;;12.70;37.97;101358.20;1766641;80;21025;-61
2021/10/08 12:26:46;;;;;;;215.30;85.85;;;;;;;12.65;37.48;101351.31;1771786;80;20934;-62
2021/10/08 12:29:14;;;;;;;265.40;130.72;;;;;;;12.54;37.65;101340.77;1761082;80;20992;-60
2021/10/08 12:31:58;;;;;;;309.87;123.28;;;;;;;12.65;38.47;101365.60;1772578;80;21519;-61
2021/10/08 12:34:36;;;;;;;243.70;107.37;;;;;;;12.76;38.39;101364.02;1765623;80;21094;-58
2021/10/08 12:37:04;;;;;;;312.65;143.35;;;;;;;12.86;38.12;101361.66;1761639;80;20921;-59
2021/10/08 12:39:36;;;;;;;518.77;252.97;;;;;;;12.92;37.52;101357.23;1756543;81;20917;-58
2021/10/08 12:42:22;;;;;;;121.02;50.43;;;;;;;13.10;38.26;101359.08;1759297;80;21088;-58
2021/10/08 12:44:51;;;;;;;312.02;146.07;;;;;;;13.33;37.68;101352.18;1762691;80;20977;-58
2021/10/08 12:47:24;;;;;;;82.20;36.45;;;;;;;13.34;37.17;101354.66;1776488;80;22280;-59
2021/10/08 12:49:59;;;;;;;;;;;;;;;13.38;38.12;101349.65;1758652;80;20942;-58
2021/10/08 12:52:50;;;;;;;253.32;112.45;;;;;;;13.22;38.77;101341.62;1777837;80;20229;-58
2021/10/08 12:55:30;;;;;;;22.75;13.40;;;;;;;13.00;39.16;101338.05;1767890;80;21499;-59
2021/10/08 12:58:15;;;;;;;111.20;46.63;;;;;;;13.12;39.25;101334.60;1772593;80;21223;-59
2021/10/08 13:00:54;;;;;;;289.77;131.60;;;;;;;13.19;38.71;101333.99;1762115;80;21099;-58
2021/10/08 13:03:34;;;;;;;65.42;31.52;;;;;;;13.12;38.54;101337.30;1758477;80;21439;-59
2021/10/08 13:06:21;;;;;;;109.05;50.08;;;;;;;12.93;38.59;101337.83;1760661;80;21463;-58
2021/10/08 13:09:09;;;;;;;125.42;55.40;;;;;;;12.86;38.55;101328.47;1775520;80;20959;-59
2021/10/08 13:11:42;;;;;;;17.48;9.18;;;;;;;12.91;38.64;101331.84;1770173;80;21013;-60
2021/10/08 13:14:25;;;;;;;51.55;25.02;;;;;;;12.85;37.74;101324.14;1762845;78;21120;-59
2021/10/08 13:16:52;;;;;;;150.75;70.50;;;;;;;12.71;37.68;101324.81;1763417;80;21052;-58
2021/10/08 13:19:36;;;;;;;563.25;271.37;;;;;;;12.84;38.27;101325.20;1768329;80;21080;-59
2021/10/08 13:22:04;;;;;;;222.82;98.78;;;;;;;12.88;37.13;101323.69;1768217;78;21467;-58
2021/10/08 13:24:31;;;;;;;161.30;74.50;;;;;;;12.81;37.08;101317.55;1766590;80;20992;-59
2021/10/08 13:27:00;;;;;;;81.75;34.90;;;;;;;12.83;37.45;101320.84;1767377;80;21162;-60
2021/10/08 13:29:27;;;;;;;82.90;38.45;;;;;;;12.94;36.66;101299.89;1770907;80;21083;-59
2021/10/08 13:31:54;;;;;;;45.55;24.82;;;;;;;12.85;36.00;101314.71;1771100;80;21451;-59
2021/10/08 13:34:22;;;;;;;70.70;36.40;;;;;;;12.70;36.21;101316.44;1766418;80;21365;-60
2021/10/08 13:36:49;;;;;;;34.23;18.02;;;;;;;12.72;35.96;101322.43;1768244;80;20977;-59
2021/10/08 13:39:16;;;;;;;54.15;27.65;;;;;;;12.61;36.22;101312.39;1734494;82;21106;-59
2021/10/08 13:41:42;;;;;;;65.67;23.18;;;;;;;12.67;36.06;101316.89;1770437;80;21068;-58
2021/10/08 13:44:10;;;;;;;47.67;23.22;;;;;;;12.58;35.56;101313.66;1771014;80;21021;-58
2021/10/08 13:46:36;;;;;;;37.50;20.45;;;;;;;12.62;36.47;101323.48;1768405;80;21468;-58
2021/10/08 13:49:03;;;;;;;29.02;15.40;;;;;;;12.69;36.06;101319.34;1735748;82;21107;-58
2021/10/08 13:51:30;;;;;;;19.50;9.23;;;;;;;12.62;36.01;101317.56;1774326;80;20978;-58
2021/10/08 13:53:57;;;;;;;44.33;21.15;;;;;;;12.31;35.50;101317.16;1768537;80;21032;-59
2021/10/08 13:56:23;;;;;;;44.20;23.75;;;;;;;12.15;35.57;101315.87;1765398;80;21655;-58
2021/10/08 13:58:50;;;;;;;29.77;14.80;;;;;;;12.20;35.91;101315.21;1729853;82;21408;-58
2021/10/08 14:01:17;;;;;;;54.53;28.90;;;;;;;12.19;35.80;101311.67;1769034;79;20977;-58
2021/10/08 14:03:52;;;;;;;45.15;21.37;;;;;;;12.09;35.72;101308.66;1773877;80;21065;-59
2021/10/08 14:09:16;;;;;;;26.85;14.25;;;;;;;12.01;36.31;101309.77;1764457;80;20980;-59
2021/10/08 14:11:37;;;;;;;21.97;12.20;;;;;;;11.98;36.53;101305.36;1732621;81;21063;-59
2021/10/08 14:14:03;;;;;;;29.80;14.78;;;;;;;11.80;36.52;101300.17;1770982;80;21302;-58
2021/10/08 14:16:30;;;;;;;28.02;14.25;;;;;;;11.75;36.39;101293.80;1765601;80;21111;-58
2021/10/08 14:18:57;;;;;;;25.60;14.38;;;;;;;11.65;36.99;101306.92;1763784;80;20988;-58
2021/10/08 14:21:23;;;;;;;25.65;11.73;;;;;;;11.54;37.17;101312.49;1760502;80;21593;-58
2021/10/08 14:23:50;;;;;;;37.35;17.60;;;;;;;11.49;37.34;101305.56;1783842;80;20973;-58
2021/10/08 14:26:16;;;;;;;44.25;13.98;;;;;;;11.51;38.16;101304.83;1759225;80;21053;-59
2021/10/08 14:28:43;;;;;;;21.27;11.10;;;;;;;11.47;38.88;101301.77;1774286;80;21138;-58
2021/10/08 14:31:09;;;;;;;24.10;11.85;;;;;;;11.37;38.98;101296.05;1772161;80;20973;-60
2021/10/08 14:33:36;;;;;;;35.65;18.40;;;;;;;11.27;38.88;101295.17;1766650;80;21072;-59
2021/10/08 14:36:04;;;;;;;31.87;18.40;;;;;;;11.17;38.95;101293.48;1769090;80;20991;-59
2021/10/08 14:38:30;;;;;;;42.13;23.90;;;;;;;11.00;39.38;101290.95;1768791;80;21364;-59
2021/10/08 14:40:57;;;;;;;35.30;19.48;;;;;;;10.72;39.93;101297.48;1773689;80;21100;-61
2021/10/08 14:43:23;;;;;;;29.15;15.23;;;;;;;10.53;40.99;101297.84;1763710;80;20977;-59
2021/10/08 14:45:50;;;;;;;23.75;11.12;;;;;;;10.42;41.56;101294.48;1766045;80;20988;-58
2021/10/08 14:48:16;;;;;;;35.15;17.05;;;;;;;10.43;41.54;101294.25;1731893;82;20994;-58
2021/10/08 14:50:43;;;;;;;33.28;16.42;;;;;;;10.44;42.04;101292.42;1770168;80;21088;-58
2021/10/08 14:53:10;;;;;;;25.82;13.25;;;;;;;10.33;42.68;101289.84;1748905;81;21124;-59
2021/10/08 14:55:48;;;;;;;31.12;16.93;;;;;;;10.18;43.37;101287.88;1756814;81;20961;-58
2021/10/08 14:58:08;;;;;;;38.13;16.50;;;;;;;9.98;44.33;101288.73;1754235;81;21097;-58
2021/10/08 15:00:36;;;;;;;46.80;22.65;;;;;;;9.80;45.12;101288.51;1753451;81;20997;-59
2021/10/08 15:03:15;;;;;;;;;;;;;;;9.62;45.60;101290.47;1758990;81;21456;-58
2021/10/08 15:05:31;;;;;;;45.90;23.40;;;;;;;9.47;46.32;101286.64;1758106;80;21709;-59
2021/10/08 15:07:58;;;;;;;40.33;22.00;;;;;;;9.34;46.67;101283.95;1750226;81;21036;-58
2021/10/08 15:10:25;;;;;;;50.78;25.77;;;;;;;9.26;46.70;101280.09;1750088;81;21057;-59
2021/10/08 15:12:51;;;;;;;52.43;24.98;;;;;;;9.19;46.70;101274.22;1827337;78;20952;-58
2021/10/08 15:15:18;;;;;;;52.03;23.55;;;;;;;9.14;47.03;101281.22;1818959;78;20864;-59
2021/10/08 15:17:45;;;;;;;56.68;25.52;;;;;;;9.05;47.49;101285.11;1824476;78;21115;-59
2021/10/08 15:20:11;;;;;;;49.93;24.52;;;;;;;8.95;47.56;101279.61;1821443;78;20977;-58
2021/10/08 15:22:39;;;;;;;49.75;23.70;;;;;;;8.89;47.86;101280.42;1820810;78;21024;-58
2021/10/08 15:25:08;;;;;;;54.60;25.57;;;;;;;8.82;48.17;101276.89;1819188;78;20889;-59
2021/10/08 15:27:40;;;;;;;40.63;22.15;;;;;;;8.73;48.26;101278.08;1821132;78;37048;-58
2021/10/08 15:30:07;;;;;;;42.00;22.75;;;;;;;8.65;48.60;101270.20;1816005;78;21266;-59
2021/10/08 15:32:35;;;;;;;37.58;21.90;;;;;;;8.62;48.58;101281.31;1820616;77;21455;-58
2021/10/08 15:35:03;;;;;;;86.60;45.85;;;;;;;8.54;49.04;101274.28;1821236;78;20886;-58
2021/10/08 15:37:30;;;;;;;70.60;37.15;;;;;;;8.49;48.94;101281.56;1818066;77;20998;-58
2021/10/08 15:39:57;;;;;;;65.03;30.30;;;;;;;8.44;49.22;101285.86;1826875;77;21020;-58
2021/10/08 15:42:23;;;;;;;48.83;25.43;;;;;;;8.31;49.27;101282.57;1819764;78;22201;-59
2021/10/08 15:44:50;;;;;;;45.67;24.52;;;;;;;8.23;49.31;101288.05;1775162;79;20978;-58
2021/10/08 15:47:17;;;;;;;45.20;25.37;;;;;;;8.15;49.49;101281.83;1762082;80;21065;-57
2021/10/08 15:49:44;;;;;;;44.58;22.93;;;;;;;8.08;49.78;101288.98;1739902;80;21487;-57
2021/10/08 15:52:10;;;;;;;46.77;24.75;;;;;;;8.00;49.87;101282.45;1767793;80;21022;-57
2021/10/08 15:54:37;;;;;;;61.60;31.33;;;;;;;7.91;50.09;101287.13;1837940;77;21146;-58
2021/10/08 15:57:03;;;;;;;75.20;38.25;;;;;;;7.87;50.16;101289.86;1776760;80;20917;-58
2021/10/08 15:59:30;;;;;;;75.52;36.93;;;;;;;7.78;50.53;101288.34;1835010;77;20877;-59
2021/10/08 16:01:57;;;;;;;75.25;38.88;;;;;;;7.72;50.80;101283.78;1829392;77;21000;-58
2021/10/08 16:04:23;;;;;;;66.15;31.62;;;;;;;7.63;51.23;101280.92;1828438;77;21000;-57
2021/10/08 16:06:50;;;;;;;57.20;29.20;;;;;;;7.55;51.25;101285.06;1829675;76;21102;-59
2021/10/08 16:09:17;;;;;;;64.55;27.42;;;;;;;7.53;51.62;101285.77;1833912;77;21379;-58
2021/10/08 16:11:44;;;;;;;52.35;24.45;;;;;;;7.47;51.91;101280.66;1811103;77;20854;-58
2021/10/08 16:14:12;;;;;;;40.73;21.60;;;;;;;7.38;52.21;101279.15;1829406;77;21429;-58
2021/10/08 16:16:42;;;;;;;84.37;44.27;;;;;;;7.32;52.65;101285.23;1826561;77;21036;-58
2021/10/08 16:19:19;;;;;;;242.25;109.92;;;;;;;7.26;52.93;101285.49;1831506;77;21128;-58
2021/10/08 16:21:43;;;;;;;269.02;118.75;;;;;;;7.23;52.92;101284.03;1823434;77;20959;-59
2021/10/08 16:24:13;;;;;;;99.83;47.85;;;;;;;7.18;53.49;101283.77;1805784;78;20945;-57
2021/10/08 16:26:41;;;;;;;46.42;29.27;;;;;;;7.15;53.89;101288.64;1831300;77;20972;-58
2021/10/08 16:29:07;;;;;;;34.80;22.53;;;;;;;7.09;54.14;101291.58;1803222;77;20975;-58
2021/10/08 16:31:34;;;;;;;34.33;23.98;;;;;;;7.07;54.04;101283.73;1833916;77;21174;-58
2021/10/08 16:34:08;;;;;;;37.20;19.30;;;;;;;7.06;54.31;101283.95;1836877;77;21291;-58
2021/10/08 16:36:41;;;;;;;37.78;21.10;;;;;;;7.01;54.38;101281.84;1833000;77;20913;-58
2021/10/08 16:39:02;;;;;;;27.07;18.02;;;;;;;6.97;54.70;101288.56;1828102;77;21027;-57
2021/10/08 16:41:28;;;;;;;25.10;15.58;;;;;;;6.90;55.06;101286.31;1834471;77;20849;-57
2021/10/08 16:43:55;;;;;;;37.15;19.30;;;;;;;6.82;55.19;101278.42;1843565;77;21128;-58
2021/10/08 16:46:21;;;;;;;35.80;18.50;;;;;;;6.79;55.64;101282.81;1832430;77;21340;-58
2021/10/08 16:48:48;;;;;;;40.63;22.90;;;;;;;6.72;55.82;101281.89;1831507;77;20991;-58
2021/10/08 16:51:14;;;;;;;44.15;28.45;;;;;;;6.66;56.25;101282.11;1834765;77;20983;-57
2021/10/08 16:53:41;;;;;;;32.38;21.10;;;;;;;6.58;56.45;101282.22;1835091;77;20932;-57
2021/10/08 16:56:08;;;;;;;38.30;25.40;;;;;;;6.51;56.93;101286.63;1828912;77;21101;-57
2021/10/08 16:58:34;;;;;;;47.00;23.67;;;;;;;6.47;57.50;101290.19;1836021;77;21462;-58
2021/10/08 17:01:01;;;;;;;58.23;25.88;;;;;;;6.40;57.86;101286.60;1827858;77;21002;-58
2021/10/08 17:03:27;;;;;;;54.88;29.20;;;;;;;6.38;58.02;101291.28;1831485;77;20972;-57
2021/10/08 17:05:54;;;;;;;58.70;29.70;;;;;;;6.34;58.46;101288.14;1821919;77;21000;-58
2021/10/08 17:08:21;;;;;;;63.85;33.00;;;;;;;6.31;58.85;101291.19;1829929;77;21107;-58
2021/10/08 17:10:47;;;;;;;76.45;37.05;;;;;;;6.23;59.11;101288.61;1840489;77;20890;-58
2021/10/08 17:13:14;;;;;;;72.82;32.88;;;;;;;6.16;59.66;101286.34;1829173;77;20921;-58
2021/10/08 17:15:41;;;;;;;88.55;39.73;;;;;;;6.08;60.34;101287.78;1833305;77;20969;-57
2021/10/08 17:18:09;;;;;;;75.22;36.93;;;;;;;6.02;61.11;101291.97;1831764;77;20992;-58
2021/10/08 17:20:36;;;;;;;67.45;35.68;;;;;;;5.95;61.60;101288.38;1829234;77;21735;-58